Flight Track Log - Related Links

Times and Time Zones

All times are in EDT time to prevent confusion due to time zone crossing. See the N2145X flight status page for this flight to view local times or setup timezone preferences in your user account.

Time Position Orientation Groundspeed Altitude Reporting Facility
EDT Latitude Longitude Course Direction KTS MPH feet Rate Location/Type
Sun 02:03:04 PM 40.8333 -73.1500 37° Northeast 126 145 2,100  Level New York TRACON
Sun 02:04:04 PM 40.8667 -73.1167 37° Northeast 143 165 2,500 200 Climbing New York TRACON
Sun 02:05:04 PM 40.9000 -73.1000 21° North 149 171 2,500  Level New York TRACON
Sun 02:06:03 PM 40.9333 -73.0667 37° Northeast 151 174 2,500 150 Level New York TRACON
Sun 02:07:04 PM 40.9667 -73.0333 37° Northeast 148 170 2,800 298 Climbing New York TRACON
Sun 02:08:04 PM 41.0167 -73.0167 14° North 150 173 3,100 158 Climbing New York TRACON
Sun 02:08:58 PM 41.0500 -73.0000 21° North 144 166 3,100  Level New York TRACON
Sun 02:10:04 PM 41.0833 -72.9833 21° North 147 169 3,100  Level New York TRACON
Sun 02:10:58 PM 41.1167 -72.9667 21° North 145 167 3,100  Level New York TRACON
Sun 02:11:58 PM 41.1667 -72.9500 14° North 146 168 3,100  Level New York TRACON
Sun 02:12:58 PM 41.2000 -72.9333 21° North 146 168 3,100 -50 Level New York TRACON
Sun 02:13:58 PM 41.2333 -72.9333 360° North 134 154 3,000 -132 Descending New York TRACON
Sun 02:14:29 PM 41.2572 -72.9217 20° North 138 159 2,900  Descending Boston Center
Sun 02:15:30 PM 41.2911 -72.9072 18° North 131 151 3,000 49 Climbing Boston Center
Sun 02:16:31 PM 41.3242 -72.8925 18° North 127 146 3,000  Level Boston Center
Sun 02:17:35 PM 41.3606 -72.8800 14° North 126 145 3,000 -48 Level Boston Center
Sun 02:18:36 PM 41.3939 -72.8664 17° North 125 144 2,900 -246 Descending Boston Center
Sun 02:19:37 PM 41.4264 -72.8522 18° North 125 144 2,500 -541 Descending Boston Center
Sun 02:20:38 PM 41.4600 -72.8386 17° North 121 139 1,800 -590 Descending Boston Center
Sun 02:21:39 PM 41.4922 -72.8300 11° North 121 139 1,300 -397 Descending Boston Center
Sun 02:22:39 PM 41.5233 -72.8172 17° North 119 137 1,000 -197 Descending Boston Center
Sun 02:23:41 PM 41.5436 -72.8381 322° Northwest 96 110 900 -192 Descending Boston Center
Sun 02:24:44 PM 41.5231 -72.8358 175° South 102 117 600 -286 Descending Boston Center
Sun 02:26:00 PM 41.5087 -72.8295 185° South  Level Estimated
Sun 02:33:00 PM 41.5087 -72.8295 17° North  Level Estimated

Login

Don't have an account? Register now (free) for customized features, flight alerts, and more!